createdAt,value
2023-03-28T00:01:41.358Z,3.88
2023-03-28T00:04:11.516Z,3.60
2023-03-28T00:06:41.548Z,4.50
2023-03-28T00:09:11.027Z,4.40
2023-03-28T00:11:39.236Z,3.47
2023-03-28T00:14:08.270Z,5.20
2023-03-28T00:16:39.284Z,4.63
2023-03-28T00:19:11.592Z,8.27
2023-03-28T00:21:41.359Z,4.20
2023-03-28T00:24:13.767Z,3.38
2023-03-28T00:26:43.013Z,5.38
2023-03-28T00:29:15.746Z,5.45
2023-03-28T00:31:44.083Z,8.48
2023-03-28T00:34:13.323Z,3.88
2023-03-28T00:36:41.859Z,4.97
2023-03-28T00:39:11.228Z,5.47
2023-03-28T00:41:42.218Z,4.95
2023-03-28T00:44:43.640Z,4.25
2023-03-28T00:47:25.813Z,4.10
2023-03-28T00:49:58.510Z,4.30
2023-03-28T00:52:30.599Z,6.10
2023-03-28T00:54:59.549Z,5.45
2023-03-28T00:57:29.517Z,5.05
2023-03-28T00:59:57.482Z,5.88
2023-03-28T01:02:25.566Z,4.10
2023-03-28T01:04:59.403Z,4.70
2023-03-28T01:07:35.326Z,6.95
2023-03-28T01:10:05.143Z,4.07
2023-03-28T01:12:34.390Z,4.53
2023-03-28T01:15:03.971Z,5.95
2023-03-28T01:17:42.373Z,6.03
2023-03-28T01:20:46.829Z,4.60
2023-03-28T01:23:37.507Z,5.90
2023-03-28T01:26:37.374Z,5.95
2023-03-28T01:29:38.474Z,6.70
2023-03-28T01:32:55.137Z,4.47
2023-03-28T01:36:02.580Z,3.50
2023-03-28T01:38:37.835Z,4.57
2023-03-28T01:41:11.824Z,5.85
2023-03-28T01:43:53.262Z,5.38
2023-03-28T01:46:28.238Z,5.90
2023-03-28T01:49:05.783Z,4.65
2023-03-28T01:51:48.296Z,5.22
2023-03-28T01:54:28.993Z,4.60
2023-03-28T01:57:05.931Z,5.32
2023-03-28T01:59:40.154Z,4.28
2023-03-28T02:02:31.286Z,4.68
2023-03-28T02:05:23.674Z,5.82
2023-03-28T02:07:55.862Z,4.05
2023-03-28T02:10:47.715Z,4.43
2023-03-28T02:13:37.875Z,4.07
2023-03-28T02:16:26.641Z,4.05
2023-03-28T02:19:08.525Z,4.32
2023-03-28T02:22:11.885Z,5.63
2023-03-28T02:24:52.152Z,5.07
2023-03-28T02:27:45.568Z,3.42
2023-03-28T02:30:32.030Z,5.30
2023-03-28T02:33:01.287Z,5.07
2023-03-28T02:35:47.959Z,5.43
2023-03-28T02:38:21.362Z,3.92
2023-03-28T02:41:00.348Z,4.38
2023-03-28T02:43:44.771Z,5.00
2023-03-28T02:46:29.257Z,3.70
2023-03-28T02:49:20.740Z,5.43
2023-03-28T02:51:56.961Z,5.65
2023-03-28T02:54:34.451Z,3.22
2023-03-28T02:57:33.393Z,5.00
2023-03-28T03:00:10.941Z,3.38
2023-03-28T03:02:39.778Z,7.28
2023-03-28T03:05:09.682Z,4.03
2023-03-28T03:07:38.665Z,4.28
2023-03-28T03:10:07.733Z,6.07
2023-03-28T03:12:37.493Z,4.40
2023-03-28T03:15:08.511Z,4.30
2023-03-28T03:17:59.681Z,4.78
2023-03-28T03:20:34.455Z,5.43
2023-03-28T03:23:04.325Z,4.50
2023-03-28T03:25:34.660Z,4.85
2023-03-28T03:28:32.083Z,4.38
2023-03-28T03:31:03.601Z,4.07
2023-03-28T03:33:50.435Z,4.38
2023-03-28T03:36:22.776Z,5.25
2023-03-28T03:38:50.753Z,4.43
2023-03-28T03:41:22.535Z,3.85
2023-03-28T03:43:50.715Z,3.47
2023-03-28T03:46:20.078Z,4.88
2023-03-28T03:48:50.567Z,3.75
2023-03-28T03:51:19.363Z,4.18
2023-03-28T03:53:50.726Z,4.10
2023-03-28T03:56:21.203Z,3.67
2023-03-28T03:58:57.761Z,4.15
2023-03-28T04:01:32.215Z,3.30
2023-03-28T04:04:12.166Z,5.13
2023-03-28T04:06:59.790Z,5.43
2023-03-28T04:09:29.153Z,4.38
2023-03-28T04:12:00.801Z,4.23
2023-03-28T04:14:29.096Z,5.75
2023-03-28T04:17:21.365Z,4.82
2023-03-28T04:19:49.758Z,6.13
2023-03-28T04:22:19.209Z,3.58
2023-03-28T04:24:53.388Z,4.85
2023-03-28T04:27:35.753Z,4.80
2023-03-28T04:30:04.661Z,4.78
2023-03-28T04:32:59.005Z,5.43
2023-03-28T04:35:29.832Z,5.55
2023-03-28T04:37:58.855Z,3.90
2023-03-28T04:40:29.260Z,5.00
2023-03-28T04:43:13.283Z,3.80
2023-03-28T04:45:48.040Z,6.00
2023-03-28T04:48:19.703Z,5.35
2023-03-28T04:50:48.571Z,6.22
2023-03-28T04:53:17.421Z,6.20
2023-03-28T04:56:04.286Z,5.70
2023-03-28T04:58:33.393Z,4.97
2023-03-28T05:01:03.707Z,6.43
2023-03-28T05:03:55.736Z,4.43
2023-03-28T05:06:25.854Z,5.63
2023-03-28T05:08:53.852Z,5.32
2023-03-28T05:11:26.653Z,4.47
2023-03-28T05:13:54.584Z,6.35
2023-03-28T05:16:33.551Z,4.65
2023-03-28T05:19:22.775Z,5.97
2023-03-28T05:22:10.586Z,6.25
2023-03-28T05:24:42.232Z,5.18
2023-03-28T05:27:17.962Z,6.13
2023-03-28T05:29:50.465Z,5.82
2023-03-28T05:32:19.841Z,4.47
2023-03-28T05:34:49.265Z,5.88
2023-03-28T05:37:17.264Z,6.60
2023-03-28T05:39:55.749Z,5.72
2023-03-28T05:42:23.904Z,7.05
2023-03-28T05:44:52.142Z,6.43
2023-03-28T05:47:37.230Z,5.07
2023-03-28T05:50:08.229Z,6.72
2023-03-28T05:52:36.283Z,5.88
2023-03-28T05:55:08.380Z,6.10
2023-03-28T05:57:36.684Z,8.07
2023-03-28T06:00:14.888Z,7.30
2023-03-28T06:02:54.769Z,8.02
2023-03-28T06:05:41.914Z,8.50
2023-03-28T06:08:18.969Z,6.82
2023-03-28T06:10:46.979Z,5.65
2023-03-28T06:13:21.700Z,5.38
2023-03-28T06:15:49.678Z,8.45
2023-03-28T06:18:19.305Z,7.97
2023-03-28T06:20:51.725Z,7.22
2023-03-28T06:23:19.603Z,6.63
2023-03-28T06:25:47.549Z,6.70
2023-03-28T06:28:18.408Z,6.15
2023-03-28T06:31:05.859Z,6.68
2023-03-28T06:33:33.847Z,6.07
2023-03-28T06:36:03.386Z,8.70
2023-03-28T06:38:38.098Z,6.35
2023-03-28T06:41:07.198Z,5.72
2023-03-28T06:43:36.538Z,7.90
2023-03-28T06:46:30.445Z,7.60
2023-03-28T06:48:58.327Z,7.85
2023-03-28T06:51:30.334Z,7.82
2023-03-28T06:53:59.375Z,9.25
2023-03-28T06:56:31.077Z,6.60
2023-03-28T06:59:00.387Z,5.78
2023-03-28T07:01:34.135Z,6.15
2023-03-28T07:04:11.257Z,7.15
2023-03-28T07:06:42.895Z,7.90
2023-03-28T07:09:10.965Z,8.40
2023-03-28T07:11:46.627Z,6.32
2023-03-28T07:14:14.635Z,6.53
2023-03-28T07:16:42.720Z,8.45
2023-03-28T07:19:11.854Z,6.97
2023-03-28T07:21:44.565Z,7.43
2023-03-28T07:24:12.603Z,6.70
2023-03-28T07:26:54.851Z,5.53
2023-03-28T07:29:29.401Z,5.90
2023-03-28T07:31:57.394Z,7.80
2023-03-28T07:34:27.077Z,5.95
2023-03-28T07:36:57.118Z,5.90
2023-03-28T07:39:57.471Z,5.15
2023-03-28T07:42:28.084Z,6.70
2023-03-28T07:44:56.266Z,7.03
2023-03-28T07:47:24.076Z,5.65
2023-03-28T07:49:52.622Z,6.55
2023-03-28T07:52:28.025Z,5.13
2023-03-28T07:54:56.199Z,7.10
2023-03-28T07:57:24.295Z,6.60
2023-03-28T07:59:52.501Z,5.22
2023-03-28T08:02:24.558Z,6.63
2023-03-28T08:04:54.009Z,5.70
2023-03-28T08:07:28.873Z,5.60
2023-03-28T08:09:58.806Z,6.53
2023-03-28T08:12:29.217Z,7.55
2023-03-28T08:14:57.329Z,7.47
2023-03-28T08:17:26.563Z,6.68
2023-03-28T08:19:55.243Z,7.75
2023-03-28T08:22:23.400Z,5.80
2023-03-28T08:25:18.862Z,7.55
2023-03-28T08:27:47.632Z,6.13
2023-03-28T08:30:15.886Z,5.47
2023-03-28T08:32:51.176Z,6.65
2023-03-28T08:35:19.493Z,6.55
2023-03-28T08:37:51.298Z,6.78
2023-03-28T08:40:23.249Z,5.45
2023-03-28T08:43:06.527Z,6.37
2023-03-28T08:45:51.536Z,4.65
2023-03-28T08:48:23.883Z,7.40
2023-03-28T08:50:56.885Z,6.65
2023-03-28T08:53:30.346Z,4.95
2023-03-28T08:56:02.978Z,6.13
2023-03-28T08:58:35.813Z,6.85
2023-03-28T09:01:04.436Z,5.57
2023-03-28T09:03:37.461Z,6.30
2023-03-28T09:06:20.762Z,6.50
2023-03-28T09:09:16.226Z,4.55
2023-03-28T09:11:58.152Z,5.35
2023-03-28T09:14:51.996Z,4.75
2023-03-28T09:17:27.778Z,5.70
2023-03-28T09:20:12.392Z,5.43
2023-03-28T09:23:36.248Z,4.35
2023-03-28T09:26:36.228Z,3.95
2023-03-28T09:29:14.750Z,3.40
2023-03-28T09:31:47.715Z,4.97
2023-03-28T09:34:23.047Z,3.88
2023-03-28T09:36:57.717Z,5.18
2023-03-28T09:39:33.983Z,5.43
2023-03-28T09:42:09.303Z,6.15
2023-03-28T09:45:12.805Z,4.18
2023-03-28T09:47:59.124Z,3.55
2023-03-28T09:50:30.454Z,5.07
2023-03-28T09:53:01.172Z,6.47
2023-03-28T09:55:32.287Z,4.38
2023-03-28T09:58:06.607Z,3.42
2023-03-28T10:00:51.886Z,2.30
2023-03-28T10:03:39.048Z,2.47
2023-03-28T10:06:21.072Z,4.13
2023-03-28T10:08:50.358Z,3.67
2023-03-28T10:11:27.336Z,1.48
2023-03-28T10:13:56.510Z,3.10
2023-03-28T10:16:29.801Z,2.03
2023-03-28T10:19:14.308Z,3.60
2023-03-28T10:22:05.598Z,4.07
2023-03-28T10:24:36.045Z,3.20
2023-03-28T10:27:10.016Z,2.67
2023-03-28T10:29:39.686Z,5.40
2023-03-28T10:32:13.447Z,2.22
2023-03-28T10:34:45.796Z,2.40
2023-03-28T10:37:26.224Z,4.05
2023-03-28T10:40:27.997Z,2.60
2023-03-28T10:43:16.720Z,2.25
2023-03-28T10:46:15.657Z,3.58
2023-03-28T10:49:24.064Z,1.98
2023-03-28T10:52:15.497Z,2.30
2023-03-28T10:54:57.348Z,2.35
2023-03-28T10:57:53.896Z,2.53
2023-03-28T11:00:30.607Z,1.70
2023-03-28T11:03:18.691Z,1.85
2023-03-28T11:06:08.925Z,2.88
2023-03-28T11:08:53.909Z,2.63
2023-03-28T11:11:41.646Z,3.63
2023-03-28T11:14:22.452Z,2.20
2023-03-28T11:16:58.834Z,2.88
2023-03-28T11:20:08.757Z,2.63
2023-03-28T11:23:05.155Z,2.30
2023-03-28T11:25:47.069Z,1.98
2023-03-28T11:28:51.579Z,2.58
2023-03-28T11:31:28.024Z,2.00
2023-03-28T11:34:03.034Z,2.22
2023-03-28T11:36:35.898Z,2.08
2023-03-28T11:39:14.886Z,3.03
2023-03-28T11:41:46.083Z,2.28
2023-03-28T11:44:22.335Z,2.67
2023-03-28T11:46:55.663Z,3.20
2023-03-28T11:49:31.725Z,2.05
2023-03-28T11:52:05.669Z,1.98
2023-03-28T11:54:41.369Z,2.53
2023-03-28T11:57:15.252Z,1.63
2023-03-28T11:59:56.001Z,2.35
2023-03-28T12:02:47.446Z,3.05
2023-03-28T12:05:23.364Z,1.58
2023-03-28T12:07:56.595Z,2.03
2023-03-28T12:10:36.026Z,2.33
2023-03-28T12:13:14.390Z,1.92
2023-03-28T12:15:56.812Z,2.35
2023-03-28T12:18:30.537Z,2.10
2023-03-28T12:21:07.727Z,1.05
2023-03-28T12:23:53.652Z,2.33
2023-03-28T12:26:55.919Z,3.17
2023-03-28T12:29:32.050Z,1.80
2023-03-28T12:32:05.320Z,3.03
2023-03-28T12:34:39.553Z,2.90
2023-03-28T12:41:12.146Z,2.13
2023-03-28T12:43:48.404Z,2.70
2023-03-28T12:46:24.413Z,1.55
2023-03-28T12:48:58.410Z,1.85
2023-03-28T12:51:33.929Z,2.30
2023-03-28T12:54:08.300Z,2.55
2023-03-28T12:56:37.405Z,3.17
2023-03-28T12:59:59.066Z,1.30
2023-03-28T13:02:50.605Z,2.38
2023-03-28T13:05:24.245Z,1.95
2023-03-28T13:08:55.157Z,2.75
2023-03-28T13:11:38.557Z,3.20
2023-03-28T13:14:26.252Z,1.63
2023-03-28T13:16:58.091Z,2.88
2023-03-28T13:19:39.481Z,2.28
2023-03-28T13:22:38.611Z,2.67
2023-03-28T13:30:04.005Z,1.75
2023-03-28T13:46:18.004Z,3.75
2023-03-28T13:48:52.226Z,3.00
2023-03-28T13:51:24.287Z,2.30
2023-03-28T13:53:52.604Z,2.55
2023-03-28T13:56:24.818Z,3.25
2023-03-28T13:58:55.472Z,1.80
2023-03-28T14:01:27.261Z,2.40
2023-03-28T14:03:56.417Z,2.42
2023-03-28T14:06:26.762Z,2.33
2023-03-28T14:08:56.912Z,2.22
2023-03-28T14:11:39.634Z,2.95
2023-03-28T14:15:13.113Z,2.33
2023-03-28T14:22:53.169Z,2.63
2023-03-28T14:29:33.078Z,2.10
2023-03-28T14:38:35.914Z,2.40
2023-03-28T14:41:16.157Z,2.30
2023-03-28T14:43:59.612Z,2.97
2023-03-28T14:46:34.502Z,3.70
2023-03-28T14:49:10.163Z,1.98
2023-03-28T14:51:43.352Z,3.75
2023-03-28T14:54:20.412Z,2.88
2023-03-28T14:56:54.718Z,2.90
2023-03-28T14:59:41.448Z,2.50
2023-03-28T15:02:24.521Z,3.03
2023-03-28T15:05:14.328Z,2.30
2023-03-28T15:08:06.375Z,1.95
2023-03-28T15:10:49.153Z,2.40
2023-03-28T15:13:23.355Z,3.63
2023-03-28T15:15:57.503Z,2.70
2023-03-28T15:18:33.800Z,2.05
2023-03-28T15:21:04.950Z,2.88
2023-03-28T15:24:04.337Z,2.40
2023-03-28T15:26:38.212Z,2.58
2023-03-28T15:32:03.802Z,2.80
2023-03-28T15:38:05.609Z,3.03
2023-03-28T15:40:40.262Z,2.85
2023-03-28T15:43:35.859Z,3.13
2023-03-28T15:46:18.281Z,1.75
2023-03-28T15:48:46.736Z,3.03
2023-03-28T15:51:21.781Z,3.00
2023-03-28T15:53:56.088Z,2.33
2023-03-28T15:56:34.109Z,2.45
2023-03-28T15:59:14.635Z,3.58
2023-03-28T16:01:50.575Z,1.75
2023-03-28T16:08:04.700Z,2.47
2023-03-28T16:10:45.388Z,2.67
2023-03-28T16:13:55.224Z,2.95
2023-03-28T16:17:08.949Z,3.13
2023-03-28T16:23:08.341Z,2.45
2023-03-28T16:25:41.481Z,2.58
2023-03-28T16:28:17.148Z,3.88
2023-03-28T16:30:45.848Z,3.58
2023-03-28T16:33:14.077Z,3.17
2023-03-28T16:35:42.514Z,2.65
2023-03-28T16:38:12.833Z,4.15
2023-03-28T16:40:41.841Z,2.55
2023-03-28T16:43:10.888Z,3.05
2023-03-28T16:45:39.006Z,2.83
2023-03-28T16:52:59.652Z,3.13
2023-03-28T16:55:53.708Z,3.35
2023-03-28T16:58:30.255Z,3.50
2023-03-28T17:01:06.346Z,4.30
2023-03-28T17:03:38.571Z,4.75
2023-03-28T17:06:20.574Z,4.25
2023-03-28T17:08:49.550Z,2.70
2023-03-28T17:11:20.643Z,3.88
2023-03-28T17:13:52.040Z,2.92
2023-03-28T17:16:20.499Z,4.90
2023-03-28T17:18:48.693Z,4.50
2023-03-28T17:21:18.334Z,4.50
2023-03-28T17:23:49.057Z,4.40
2023-03-28T17:26:18.952Z,4.35
2023-03-28T17:28:47.116Z,6.38
2023-03-28T17:31:17.651Z,5.70
2023-03-28T17:33:47.127Z,4.93
2023-03-28T17:36:21.029Z,4.18
2023-03-28T17:38:50.401Z,4.35
2023-03-28T17:41:23.112Z,6.07
2023-03-28T17:46:19.548Z,9.05
2023-03-28T17:48:47.554Z,7.25
2023-03-28T17:51:16.284Z,10.25
2023-03-28T17:53:46.945Z,9.50
2023-03-28T17:56:15.789Z,16.60
2023-03-28T17:58:45.572Z,15.85
2023-03-28T18:01:16.639Z,9.55
2023-03-28T18:03:45.817Z,7.53
2023-03-28T18:06:24.155Z,5.47
2023-03-28T18:08:52.068Z,4.90
2023-03-28T18:11:20.150Z,5.05
2023-03-28T18:13:50.171Z,4.20
2023-03-28T18:16:19.060Z,3.65
2023-03-28T18:18:47.238Z,3.92
2023-03-28T18:21:15.626Z,5.07
2023-03-28T18:23:43.544Z,7.40
2023-03-28T18:26:12.196Z,4.45
2023-03-28T18:28:40.577Z,3.83
2023-03-28T18:31:11.627Z,4.05
2023-03-28T18:33:40.937Z,3.40
2023-03-28T18:36:10.102Z,2.63
2023-03-28T18:38:38.883Z,3.10
2023-03-28T18:41:08.278Z,3.47
2023-03-28T18:43:37.196Z,4.20
2023-03-28T18:46:08.224Z,2.90
2023-03-28T18:48:37.552Z,3.42
2023-03-28T18:51:06.979Z,2.90
2023-03-28T18:53:35.033Z,3.05
2023-03-28T18:56:03.434Z,3.78
2023-03-28T18:58:31.528Z,3.22
2023-03-28T19:01:01.143Z,3.42
2023-03-28T19:03:31.612Z,2.97
2023-03-28T19:06:02.348Z,2.60
2023-03-28T19:08:30.965Z,3.90
2023-03-28T19:11:00.720Z,2.38
2023-03-28T19:13:30.388Z,4.95
2023-03-28T19:15:59.670Z,2.85
2023-03-28T19:18:28.339Z,3.13
2023-03-28T19:20:58.127Z,2.85
2023-03-28T19:23:28.998Z,4.47
2023-03-28T19:25:57.242Z,3.35
2023-03-28T19:28:25.589Z,4.38
2023-03-28T19:31:01.298Z,3.63
2023-03-28T19:33:30.291Z,4.15
2023-03-28T19:35:58.824Z,3.75
2023-03-28T19:38:30.731Z,3.05
2023-03-28T19:40:59.513Z,2.15
2023-03-28T19:43:28.534Z,2.40
2023-03-28T19:46:02.192Z,3.28
2023-03-28T19:48:30.305Z,2.00
2023-03-28T19:50:58.727Z,2.47
2023-03-28T19:53:28.710Z,3.30
2023-03-28T19:55:58.899Z,3.42
2023-03-28T19:58:28.359Z,3.08
2023-03-28T20:00:57.108Z,3.50
2023-03-28T20:03:25.266Z,2.05
2023-03-28T20:05:53.242Z,3.50
2023-03-28T20:08:21.612Z,3.95
2023-03-28T20:10:52.537Z,3.85
2023-03-28T20:13:20.886Z,8.07
2023-03-28T20:15:48.795Z,5.70
2023-03-28T20:18:20.907Z,4.13
2023-03-28T20:20:52.900Z,10.80
2023-03-28T20:23:22.327Z,18.33
2023-03-28T20:25:53.178Z,7.75
2023-03-28T20:28:24.428Z,9.02
2023-03-28T20:30:53.402Z,5.18
2023-03-28T20:33:21.565Z,5.57
2023-03-28T20:35:52.899Z,4.50
2023-03-28T20:38:21.318Z,3.42
2023-03-28T20:40:49.535Z,4.25
2023-03-28T20:43:21.204Z,4.82
2023-03-28T20:45:53.741Z,4.78
2023-03-28T20:48:26.030Z,4.47
2023-03-28T20:50:55.217Z,5.83
2023-03-28T20:53:24.191Z,5.07
2023-03-28T20:56:01.880Z,3.70
2023-03-28T20:58:32.673Z,5.45
2023-03-28T21:01:02.146Z,3.33
2023-03-28T21:03:46.672Z,4.72
2023-03-28T21:06:16.137Z,4.72
2023-03-28T21:08:47.020Z,4.15
2023-03-28T21:11:16.580Z,3.75
2023-03-28T21:13:46.616Z,4.85
2023-03-28T21:16:15.867Z,3.72
2023-03-28T21:18:44.044Z,5.30
2023-03-28T21:21:13.358Z,3.70
2023-03-28T21:23:42.214Z,3.03
2023-03-28T21:26:12.793Z,3.40
2023-03-28T21:28:41.107Z,3.05
2023-03-28T21:31:13.232Z,3.33
2023-03-28T21:33:42.647Z,3.80
2023-03-28T21:36:12.855Z,4.22
2023-03-28T21:38:41.732Z,4.68
2023-03-28T21:41:11.592Z,3.85
2023-03-28T21:43:40.251Z,3.20
2023-03-28T21:46:11.278Z,4.18
2023-03-28T21:48:39.974Z,3.65
2023-03-28T21:51:07.888Z,5.18
2023-03-28T21:53:37.277Z,3.60
2023-03-28T21:56:06.622Z,3.92
2023-03-28T21:58:35.278Z,4.72
2023-03-28T22:01:04.151Z,3.90
2023-03-28T22:03:37.064Z,4.15
2023-03-28T22:06:06.768Z,3.47
2023-03-28T22:08:34.615Z,3.75
2023-03-28T22:11:04.792Z,3.88
2023-03-28T22:13:33.071Z,4.57
2023-03-28T22:16:00.964Z,4.43
2023-03-28T22:18:30.579Z,3.70
2023-03-28T22:21:02.412Z,3.70
2023-03-28T22:23:31.006Z,4.18
2023-03-28T22:25:58.844Z,4.07
2023-03-28T22:28:27.011Z,3.10
2023-03-28T22:30:56.101Z,4.63
2023-03-28T22:33:25.170Z,3.80
2023-03-28T22:35:53.420Z,5.03
2023-03-28T22:38:22.704Z,3.72
2023-03-28T22:40:50.841Z,3.78
2023-03-28T22:43:19.196Z,4.43
2023-03-28T22:45:47.345Z,4.38
2023-03-28T22:48:15.237Z,3.47
2023-03-28T22:50:44.446Z,3.80
2023-03-28T22:53:14.419Z,3.70
2023-03-28T22:55:46.284Z,4.90
2023-03-28T22:58:14.353Z,4.93
2023-03-28T23:00:43.722Z,3.28
2023-03-28T23:03:12.197Z,3.95
2023-03-28T23:05:40.240Z,4.35
2023-03-28T23:08:08.478Z,4.18
2023-03-28T23:10:36.466Z,3.53
2023-03-28T23:13:05.994Z,4.18
2023-03-28T23:15:34.069Z,5.70
2023-03-28T23:18:01.941Z,3.47
2023-03-28T23:20:29.921Z,5.10
2023-03-28T23:22:57.711Z,5.05
2023-03-28T23:25:25.995Z,4.53
2023-03-28T23:27:53.818Z,4.90
2023-03-28T23:30:23.067Z,4.32
2023-03-28T23:32:51.225Z,4.20
2023-03-28T23:35:19.140Z,4.65
2023-03-28T23:37:46.891Z,4.57
2023-03-28T23:40:15.573Z,5.47
2023-03-28T23:42:44.911Z,4.30
2023-03-28T23:45:14.898Z,5.40
2023-03-28T23:47:45.130Z,4.90
2023-03-28T23:50:14.257Z,4.70
2023-03-28T23:52:42.082Z,6.07
2023-03-28T23:55:10.185Z,4.18
2023-03-28T23:57:38.034Z,4.95
